sensor_id;sensor_type;location;lat;lon;timestamp;P1;durP1;ratioP1;P2;durP2;ratioP2
12758;SDS011;20944;47.048;15.390;2024-03-23T00:55:52;6.23;;;2.53;;
12758;SDS011;20944;47.048;15.390;2024-03-23T00:58:18;4.80;;;2.53;;
12758;SDS011;20944;47.048;15.390;2024-03-23T01:00:44;4.87;;;2.20;;
12758;SDS011;20944;47.048;15.390;2024-03-23T01:03:12;2.53;;;1.43;;
12758;SDS011;20944;47.048;15.390;2024-03-23T01:05:38;2.43;;;1.87;;
12758;SDS011;20944;47.048;15.390;2024-03-23T01:08:05;2.43;;;1.23;;
12758;SDS011;20944;47.048;15.390;2024-03-23T01:10:32;2.77;;;1.80;;
12758;SDS011;20944;47.048;15.390;2024-03-23T01:13:00;1.73;;;1.27;;
12758;SDS011;20944;47.048;15.390;2024-03-23T01:15:27;2.93;;;1.50;;
12758;SDS011;20944;47.048;15.390;2024-03-23T01:17:54;1.97;;;1.70;;
12758;SDS011;20944;47.048;15.390;2024-03-23T01:20:20;2.37;;;1.30;;
12758;SDS011;20944;47.048;15.390;2024-03-23T01:22:47;2.50;;;1.20;;
12758;SDS011;20944;47.048;15.390;2024-03-23T01:25:13;4.07;;;1.60;;
12758;SDS011;20944;47.048;15.390;2024-03-23T01:27:41;5.97;;;1.77;;
12758;SDS011;20944;47.048;15.390;2024-03-23T01:30:09;3.60;;;1.60;;
12758;SDS011;20944;47.048;15.390;2024-03-23T01:32:36;2.60;;;1.53;;
12758;SDS011;20944;47.048;15.390;2024-03-23T01:35:02;7.10;;;1.73;;
12758;SDS011;20944;47.048;15.390;2024-03-23T01:37:30;2.90;;;1.80;;
12758;SDS011;20944;47.048;15.390;2024-03-23T01:39:56;3.33;;;2.00;;
12758;SDS011;20944;47.048;15.390;2024-03-23T01:42:23;3.03;;;2.03;;
12758;SDS011;20944;47.048;15.390;2024-03-23T01:44:49;4.63;;;1.97;;
12758;SDS011;20944;47.048;15.390;2024-03-23T01:47:18;2.70;;;1.50;;
12758;SDS011;20944;47.048;15.390;2024-03-23T01:49:44;5.13;;;2.50;;
12758;SDS011;20944;47.048;15.390;2024-03-23T01:52:11;3.50;;;2.20;;
12758;SDS011;20944;47.048;15.390;2024-03-23T01:54:37;4.43;;;1.77;;
12758;SDS011;20944;47.048;15.390;2024-03-23T01:57:05;3.03;;;1.57;;
12758;SDS011;20944;47.048;15.390;2024-03-23T01:59:31;2.67;;;1.17;;
12758;SDS011;20944;47.048;15.390;2024-03-23T02:01:59;3.10;;;1.60;;
12758;SDS011;20944;47.048;15.390;2024-03-23T02:04:26;2.33;;;1.53;;
12758;SDS011;20944;47.048;15.390;2024-03-23T02:06:53;3.20;;;1.67;;
12758;SDS011;20944;47.048;15.390;2024-03-23T02:09:20;4.70;;;1.50;;
12758;SDS011;20944;47.048;15.390;2024-03-23T02:11:47;1.30;;;1.20;;
12758;SDS011;20944;47.048;15.390;2024-03-23T02:14:13;5.33;;;2.03;;
12758;SDS011;20944;47.048;15.390;2024-03-23T02:16:40;3.83;;;1.80;;
12758;SDS011;20944;47.048;15.390;2024-03-23T02:19:07;5.57;;;1.87;;
12758;SDS011;20944;47.048;15.390;2024-03-23T02:21:35;2.27;;;1.80;;
12758;SDS011;20944;47.048;15.390;2024-03-23T02:24:03;3.73;;;2.00;;
12758;SDS011;20944;47.048;15.390;2024-03-23T02:26:30;3.30;;;1.73;;
12758;SDS011;20944;47.048;15.390;2024-03-23T02:28:56;2.83;;;2.10;;
12758;SDS011;20944;47.048;15.390;2024-03-23T02:31:23;1.57;;;1.47;;
12758;SDS011;20944;47.048;15.390;2024-03-23T02:33:49;1.87;;;1.40;;
12758;SDS011;20944;47.048;15.390;2024-03-23T02:36:18;1.83;;;1.60;;
12758;SDS011;20944;47.048;15.390;2024-03-23T02:38:46;1.43;;;1.33;;
12758;SDS011;20944;47.048;15.390;2024-03-23T02:41:15;2.23;;;1.67;;
12758;SDS011;20944;47.048;15.390;2024-03-23T02:43:48;2.33;;;1.83;;
12758;SDS011;20944;47.048;15.390;2024-03-23T02:46:15;5.50;;;2.00;;
12758;SDS011;20944;47.048;15.390;2024-03-23T02:48:41;4.93;;;2.20;;
12758;SDS011;20944;47.048;15.390;2024-03-23T02:51:08;2.30;;;1.80;;
12758;SDS011;20944;47.048;15.390;2024-03-23T02:53:35;2.40;;;1.93;;
12758;SDS011;20944;47.048;15.390;2024-03-23T02:56:02;4.23;;;1.80;;
12758;SDS011;20944;47.048;15.390;2024-03-23T02:58:30;2.37;;;1.47;;
12758;SDS011;20944;47.048;15.390;2024-03-23T03:00:58;6.03;;;3.93;;
12758;SDS011;20944;47.048;15.390;2024-03-23T03:03:24;2.10;;;1.90;;
12758;SDS011;20944;47.048;15.390;2024-03-23T03:05:54;3.67;;;1.73;;
12758;SDS011;20944;47.048;15.390;2024-03-23T03:08:21;4.53;;;2.13;;
12758;SDS011;20944;47.048;15.390;2024-03-23T03:10:48;1.80;;;1.67;;
12758;SDS011;20944;47.048;15.390;2024-03-23T03:13:14;3.53;;;2.00;;
12758;SDS011;20944;47.048;15.390;2024-03-23T03:15:43;3.30;;;1.60;;
12758;SDS011;20944;47.048;15.390;2024-03-23T03:18:09;4.27;;;2.03;;
12758;SDS011;20944;47.048;15.390;2024-03-23T03:20:37;1.77;;;1.60;;
12758;SDS011;20944;47.048;15.390;2024-03-23T03:23:04;2.00;;;1.70;;
12758;SDS011;20944;47.048;15.390;2024-03-23T03:25:32;2.93;;;1.60;;
12758;SDS011;20944;47.048;15.390;2024-03-23T03:27:58;2.23;;;1.90;;
12758;SDS011;20944;47.048;15.390;2024-03-23T03:30:25;4.20;;;1.67;;
12758;SDS011;20944;47.048;15.390;2024-03-23T03:32:53;3.67;;;1.60;;
12758;SDS011;20944;47.048;15.390;2024-03-23T03:35:20;2.73;;;1.60;;
12758;SDS011;20944;47.048;15.390;2024-03-23T03:37:46;3.27;;;1.63;;
12758;SDS011;20944;47.048;15.390;2024-03-23T03:40:14;2.73;;;1.80;;
12758;SDS011;20944;47.048;15.390;2024-03-23T03:42:40;1.77;;;1.40;;
12758;SDS011;20944;47.048;15.390;2024-03-23T03:45:07;1.77;;;1.40;;
12758;SDS011;20944;47.048;15.390;2024-03-23T03:47:34;1.93;;;1.70;;
12758;SDS011;20944;47.048;15.390;2024-03-23T03:50:02;3.23;;;1.80;;
12758;SDS011;20944;47.048;15.390;2024-03-23T03:52:28;2.30;;;1.90;;
12758;SDS011;20944;47.048;15.390;2024-03-23T03:55:02;2.37;;;1.63;;
12758;SDS011;20944;47.048;15.390;2024-03-23T03:57:28;2.27;;;1.70;;
12758;SDS011;20944;47.048;15.390;2024-03-23T03:59:56;6.40;;;1.63;;
12758;SDS011;20944;47.048;15.390;2024-03-23T04:02:22;3.47;;;2.13;;
12758;SDS011;20944;47.048;15.390;2024-03-23T04:04:49;4.33;;;2.00;;
12758;SDS011;20944;47.048;15.390;2024-03-23T04:07:16;2.87;;;1.90;;
12758;SDS011;20944;47.048;15.390;2024-03-23T04:09:44;4.37;;;1.80;;
12758;SDS011;20944;47.048;15.390;2024-03-23T04:12:10;3.10;;;2.00;;
12758;SDS011;20944;47.048;15.390;2024-03-23T04:14:37;4.03;;;1.97;;
12758;SDS011;20944;47.048;15.390;2024-03-23T04:17:03;2.93;;;2.07;;
12758;SDS011;20944;47.048;15.390;2024-03-23T04:19:30;3.53;;;1.70;;
12758;SDS011;20944;47.048;15.390;2024-03-23T04:21:56;4.87;;;1.77;;
12758;SDS011;20944;47.048;15.390;2024-03-23T04:24:25;3.30;;;2.00;;
12758;SDS011;20944;47.048;15.390;2024-03-23T04:26:52;2.77;;;1.90;;
12758;SDS011;20944;47.048;15.390;2024-03-23T04:29:19;3.90;;;1.97;;
12758;SDS011;20944;47.048;15.390;2024-03-23T04:31:45;6.77;;;2.23;;
12758;SDS011;20944;47.048;15.390;2024-03-23T04:34:12;2.77;;;2.10;;
12758;SDS011;20944;47.048;15.390;2024-03-23T04:36:39;2.60;;;2.10;;
12758;SDS011;20944;47.048;15.390;2024-03-23T04:39:06;2.13;;;1.57;;
12758;SDS011;20944;47.048;15.390;2024-03-23T04:41:36;3.37;;;2.10;;
12758;SDS011;20944;47.048;15.390;2024-03-23T04:44:03;3.00;;;1.80;;
12758;SDS011;20944;47.048;15.390;2024-03-23T04:46:30;2.77;;;1.50;;
12758;SDS011;20944;47.048;15.390;2024-03-23T04:48:56;4.63;;;1.67;;
12758;SDS011;20944;47.048;15.390;2024-03-23T04:51:24;2.57;;;1.77;;
12758;SDS011;20944;47.048;15.390;2024-03-23T04:53:51;3.77;;;2.03;;
12758;SDS011;20944;47.048;15.390;2024-03-23T04:56:18;3.87;;;2.13;;
12758;SDS011;20944;47.048;15.390;2024-03-23T04:58:47;4.73;;;2.53;;
12758;SDS011;20944;47.048;15.390;2024-03-23T05:01:13;1.90;;;1.60;;
12758;SDS011;20944;47.048;15.390;2024-03-23T05:03:41;3.70;;;1.70;;
12758;SDS011;20944;47.048;15.390;2024-03-23T05:06:07;2.10;;;1.67;;
12758;SDS011;20944;47.048;15.390;2024-03-23T05:08:34;2.50;;;1.80;;
12758;SDS011;20944;47.048;15.390;2024-03-23T05:11:00;3.90;;;1.67;;
12758;SDS011;20944;47.048;15.390;2024-03-23T05:13:28;3.63;;;2.00;;
12758;SDS011;20944;47.048;15.390;2024-03-23T05:15:55;4.00;;;2.23;;
12758;SDS011;20944;47.048;15.390;2024-03-23T05:18:22;2.37;;;1.97;;
12758;SDS011;20944;47.048;15.390;2024-03-23T05:20:55;3.43;;;1.97;;
12758;SDS011;20944;47.048;15.390;2024-03-23T05:23:22;3.97;;;2.47;;
12758;SDS011;20944;47.048;15.390;2024-03-23T05:25:49;5.07;;;2.20;;
12758;SDS011;20944;47.048;15.390;2024-03-23T05:28:17;4.43;;;2.37;;
12758;SDS011;20944;47.048;15.390;2024-03-23T05:30:43;3.27;;;2.13;;
12758;SDS011;20944;47.048;15.390;2024-03-23T05:33:12;3.37;;;2.00;;
12758;SDS011;20944;47.048;15.390;2024-03-23T05:35:38;5.40;;;2.47;;
12758;SDS011;20944;47.048;15.390;2024-03-23T05:38:06;4.80;;;2.50;;
12758;SDS011;20944;47.048;15.390;2024-03-23T05:40:32;6.40;;;2.20;;
12758;SDS011;20944;47.048;15.390;2024-03-23T05:43:02;4.47;;;2.70;;
12758;SDS011;20944;47.048;15.390;2024-03-23T05:45:29;6.23;;;2.53;;
12758;SDS011;20944;47.048;15.390;2024-03-23T05:47:56;4.70;;;2.73;;
12758;SDS011;20944;47.048;15.390;2024-03-23T05:50:23;5.47;;;3.17;;
12758;SDS011;20944;47.048;15.390;2024-03-23T05:52:51;4.83;;;3.50;;
12758;SDS011;20944;47.048;15.390;2024-03-23T05:55:17;7.00;;;3.67;;
12758;SDS011;20944;47.048;15.390;2024-03-23T05:57:44;4.67;;;3.10;;
12758;SDS011;20944;47.048;15.390;2024-03-23T06:00:11;6.70;;;3.50;;
12758;SDS011;20944;47.048;15.390;2024-03-23T06:02:42;4.40;;;3.13;;
12758;SDS011;20944;47.048;15.390;2024-03-23T06:05:10;4.77;;;3.30;;
12758;SDS011;20944;47.048;15.390;2024-03-23T06:07:39;6.37;;;3.93;;
12758;SDS011;20944;47.048;15.390;2024-03-23T06:10:07;9.23;;;4.73;;
12758;SDS011;20944;47.048;15.390;2024-03-23T06:12:33;6.27;;;4.50;;
12758;SDS011;20944;47.048;15.390;2024-03-23T06:15:01;7.77;;;4.50;;
12758;SDS011;20944;47.048;15.390;2024-03-23T06:17:27;8.87;;;4.80;;
12758;SDS011;20944;47.048;15.390;2024-03-23T06:19:54;7.37;;;4.07;;
12758;SDS011;20944;47.048;15.390;2024-03-23T06:22:20;7.73;;;3.77;;
12758;SDS011;20944;47.048;15.390;2024-03-23T06:24:49;5.17;;;3.93;;
12758;SDS011;20944;47.048;15.390;2024-03-23T06:27:15;5.30;;;3.70;;
12758;SDS011;20944;47.048;15.390;2024-03-23T06:29:42;6.43;;;3.70;;
12758;SDS011;20944;47.048;15.390;2024-03-23T06:32:08;5.20;;;2.97;;
12758;SDS011;20944;47.048;15.390;2024-03-23T06:34:35;5.27;;;3.27;;
12758;SDS011;20944;47.048;15.390;2024-03-23T06:37:01;6.53;;;3.70;;
12758;SDS011;20944;47.048;15.390;2024-03-23T06:39:29;8.20;;;4.37;;
12758;SDS011;20944;47.048;15.390;2024-03-23T06:41:56;7.07;;;3.53;;
12758;SDS011;20944;47.048;15.390;2024-03-23T06:44:24;5.60;;;3.57;;
12758;SDS011;20944;47.048;15.390;2024-03-23T06:46:50;5.43;;;3.10;;
12758;SDS011;20944;47.048;15.390;2024-03-23T06:49:17;4.67;;;3.33;;
12758;SDS011;20944;47.048;15.390;2024-03-23T06:51:44;7.37;;;3.47;;
12758;SDS011;20944;47.048;15.390;2024-03-23T06:54:11;4.93;;;2.87;;
12758;SDS011;20944;47.048;15.390;2024-03-23T06:56:38;5.70;;;2.90;;
12758;SDS011;20944;47.048;15.390;2024-03-23T06:59:06;6.23;;;3.20;;
12758;SDS011;20944;47.048;15.390;2024-03-23T07:01:33;9.10;;;3.50;;
12758;SDS011;20944;47.048;15.390;2024-03-23T07:04:00;6.37;;;3.27;;
12758;SDS011;20944;47.048;15.390;2024-03-23T07:06:26;5.43;;;3.80;;
12758;SDS011;20944;47.048;15.390;2024-03-23T07:08:54;4.27;;;3.60;;
12758;SDS011;20944;47.048;15.390;2024-03-23T07:11:20;5.63;;;3.70;;
12758;SDS011;20944;47.048;15.390;2024-03-23T07:13:49;5.00;;;3.40;;
12758;SDS011;20944;47.048;15.390;2024-03-23T07:16:17;8.40;;;3.70;;
12758;SDS011;20944;47.048;15.390;2024-03-23T07:18:44;4.70;;;3.30;;
12758;SDS011;20944;47.048;15.390;2024-03-23T07:21:10;7.50;;;3.53;;
12758;SDS011;20944;47.048;15.390;2024-03-23T07:23:38;4.90;;;3.43;;
12758;SDS011;20944;47.048;15.390;2024-03-23T07:26:07;5.33;;;3.57;;
12758;SDS011;20944;47.048;15.390;2024-03-23T07:28:34;5.03;;;3.70;;
12758;SDS011;20944;47.048;15.390;2024-03-23T07:31:02;7.43;;;3.73;;
12758;SDS011;20944;47.048;15.390;2024-03-23T07:33:31;7.23;;;4.20;;
12758;SDS011;20944;47.048;15.390;2024-03-23T07:35:58;4.60;;;3.33;;
12758;SDS011;20944;47.048;15.390;2024-03-23T07:38:26;6.57;;;4.20;;
12758;SDS011;20944;47.048;15.390;2024-03-23T07:41:02;7.80;;;3.30;;
12758;SDS011;20944;47.048;15.390;2024-03-23T07:43:29;6.30;;;3.47;;
12758;SDS011;20944;47.048;15.390;2024-03-23T07:45:56;7.43;;;4.50;;
12758;SDS011;20944;47.048;15.390;2024-03-23T07:48:23;5.80;;;3.93;;
12758;SDS011;20944;47.048;15.390;2024-03-23T07:50:58;7.17;;;4.47;;
12758;SDS011;20944;47.048;15.390;2024-03-23T07:53:25;10.20;;;4.67;;
12758;SDS011;20944;47.048;15.390;2024-03-23T07:55:52;4.97;;;3.40;;
12758;SDS011;20944;47.048;15.390;2024-03-23T07:58:23;8.73;;;3.70;;
12758;SDS011;20944;47.048;15.390;2024-03-23T08:00:49;7.20;;;4.00;;
12758;SDS011;20944;47.048;15.390;2024-03-23T08:03:17;6.93;;;3.60;;
12758;SDS011;20944;47.048;15.390;2024-03-23T08:05:43;5.63;;;3.77;;
12758;SDS011;20944;47.048;15.390;2024-03-23T08:08:12;5.43;;;3.30;;
12758;SDS011;20944;47.048;15.390;2024-03-23T08:10:46;6.43;;;3.83;;
12758;SDS011;20944;47.048;15.390;2024-03-23T08:13:14;5.93;;;3.47;;
12758;SDS011;20944;47.048;15.390;2024-03-23T08:15:40;5.00;;;3.33;;
12758;SDS011;20944;47.048;15.390;2024-03-23T08:18:07;5.20;;;3.10;;
12758;SDS011;20944;47.048;15.390;2024-03-23T08:20:33;7.70;;;3.03;;
12758;SDS011;20944;47.048;15.390;2024-03-23T08:23:01;5.53;;;3.57;;
12758;SDS011;20944;47.048;15.390;2024-03-23T08:25:30;7.23;;;2.93;;
12758;SDS011;20944;47.048;15.390;2024-03-23T08:27:57;3.63;;;2.93;;
12758;SDS011;20944;47.048;15.390;2024-03-23T08:30:24;5.50;;;2.87;;
12758;SDS011;20944;47.048;15.390;2024-03-23T08:32:51;5.67;;;3.63;;
12758;SDS011;20944;47.048;15.390;2024-03-23T08:35:17;6.47;;;3.60;;
12758;SDS011;20944;47.048;15.390;2024-03-23T08:37:45;5.10;;;3.67;;
12758;SDS011;20944;47.048;15.390;2024-03-23T08:40:12;6.90;;;3.57;;
12758;SDS011;20944;47.048;15.390;2024-03-23T08:42:40;6.67;;;3.23;;
12758;SDS011;20944;47.048;15.390;2024-03-23T08:45:07;4.63;;;3.40;;
12758;SDS011;20944;47.048;15.390;2024-03-23T08:47:34;5.30;;;3.20;;
12758;SDS011;20944;47.048;15.390;2024-03-23T08:50:01;4.57;;;3.80;;
12758;SDS011;20944;47.048;15.390;2024-03-23T08:52:28;6.13;;;3.73;;
12758;SDS011;20944;47.048;15.390;2024-03-23T08:54:55;5.97;;;3.90;;
12758;SDS011;20944;47.048;15.390;2024-03-23T08:57:22;5.80;;;3.43;;
12758;SDS011;20944;47.048;15.390;2024-03-23T08:59:50;7.67;;;3.67;;
12758;SDS011;20944;47.048;15.390;2024-03-23T09:02:17;5.77;;;3.63;;
12758;SDS011;20944;47.048;15.390;2024-03-23T09:04:44;5.67;;;3.60;;
12758;SDS011;20944;47.048;15.390;2024-03-23T09:07:11;6.57;;;3.40;;
12758;SDS011;20944;47.048;15.390;2024-03-23T09:09:38;3.87;;;3.00;;
12758;SDS011;20944;47.048;15.390;2024-03-23T09:12:05;8.97;;;3.20;;
12758;SDS011;20944;47.048;15.390;2024-03-23T09:14:32;6.53;;;3.30;;
12758;SDS011;20944;47.048;15.390;2024-03-23T09:17:01;5.63;;;2.70;;
12758;SDS011;20944;47.048;15.390;2024-03-23T09:19:28;3.27;;;2.40;;
12758;SDS011;20944;47.048;15.390;2024-03-23T09:21:55;4.00;;;2.30;;
12758;SDS011;20944;47.048;15.390;2024-03-23T09:24:22;7.57;;;2.40;;
12758;SDS011;20944;47.048;15.390;2024-03-23T09:26:51;4.57;;;2.20;;
12758;SDS011;20944;47.048;15.390;2024-03-23T09:29:17;3.27;;;2.07;;
12758;SDS011;20944;47.048;15.390;2024-03-23T09:31:44;3.70;;;1.93;;
12758;SDS011;20944;47.048;15.390;2024-03-23T09:34:12;3.70;;;1.95;;
12758;SDS011;20944;47.048;15.390;2024-03-23T09:36:39;2.27;;;2.07;;
12758;SDS011;20944;47.048;15.390;2024-03-23T09:39:06;4.30;;;2.27;;
12758;SDS011;20944;47.048;15.390;2024-03-23T09:41:34;2.63;;;1.92;;
12758;SDS011;20944;47.048;15.390;2024-03-23T09:44:01;4.23;;;1.50;;
12758;SDS011;20944;47.048;15.390;2024-03-23T09:46:28;2.53;;;1.73;;
12758;SDS011;20944;47.048;15.390;2024-03-23T09:48:59;2.78;;;1.95;;
12758;SDS011;20944;47.048;15.390;2024-03-23T09:51:31;1.70;;;1.47;;
12758;SDS011;20944;47.048;15.390;2024-03-23T09:53:57;4.70;;;1.80;;
12758;SDS011;20944;47.048;15.390;2024-03-23T09:56:24;2.55;;;1.70;;
12758;SDS011;20944;47.048;15.390;2024-03-23T09:58:50;2.40;;;1.80;;
12758;SDS011;20944;47.048;15.390;2024-03-23T10:01:17;1.73;;;1.63;;
12758;SDS011;20944;47.048;15.390;2024-03-23T10:03:44;3.53;;;1.53;;
12758;SDS011;20944;47.048;15.390;2024-03-23T10:06:12;4.03;;;2.43;;
12758;SDS011;20944;47.048;15.390;2024-03-23T10:08:40;1.92;;;1.80;;
12758;SDS011;20944;47.048;15.390;2024-03-23T10:11:12;4.18;;;2.50;;
12758;SDS011;20944;47.048;15.390;2024-03-23T10:13:41;2.63;;;2.10;;
12758;SDS011;20944;47.048;15.390;2024-03-23T10:16:09;1.67;;;1.58;;
12758;SDS011;20944;47.048;15.390;2024-03-23T10:18:39;2.17;;;1.80;;
12758;SDS011;20944;47.048;15.390;2024-03-23T10:21:07;2.78;;;1.90;;
12758;SDS011;20944;47.048;15.390;2024-03-23T10:23:34;6.57;;;1.98;;
12758;SDS011;20944;47.048;15.390;2024-03-23T10:26:13;2.53;;;1.73;;
12758;SDS011;20944;47.048;15.390;2024-03-23T10:28:51;3.20;;;1.98;;
12758;SDS011;20944;47.048;15.390;2024-03-23T10:31:18;3.22;;;2.00;;
12758;SDS011;20944;47.048;15.390;2024-03-23T10:33:45;3.78;;;1.90;;
12758;SDS011;20944;47.048;15.390;2024-03-23T10:36:13;2.13;;;1.92;;
12758;SDS011;20944;47.048;15.390;2024-03-23T10:38:40;3.47;;;2.10;;
12758;SDS011;20944;47.048;15.390;2024-03-23T10:41:08;2.05;;;1.48;;
12758;SDS011;20944;47.048;15.390;2024-03-23T10:43:36;2.15;;;1.55;;
12758;SDS011;20944;47.048;15.390;2024-03-23T10:46:04;5.18;;;2.08;;
12758;SDS011;20944;47.048;15.390;2024-03-23T10:48:32;2.13;;;1.40;;
12758;SDS011;20944;47.048;15.390;2024-03-23T10:50:59;1.95;;;1.42;;
12758;SDS011;20944;47.048;15.390;2024-03-23T10:53:27;2.55;;;1.33;;
12758;SDS011;20944;47.048;15.390;2024-03-23T10:55:55;1.45;;;1.25;;
12758;SDS011;20944;47.048;15.390;2024-03-23T10:58:23;2.10;;;1.23;;
12758;SDS011;20944;47.048;15.390;2024-03-23T11:00:55;1.15;;;1.05;;
12758;SDS011;20944;47.048;15.390;2024-03-23T11:03:34;2.33;;;1.05;;
12758;SDS011;20944;47.048;15.390;2024-03-23T11:06:03;1.33;;;1.15;;
12758;SDS011;20944;47.048;15.390;2024-03-23T11:08:31;1.02;;;0.90;;
12758;SDS011;20944;47.048;15.390;2024-03-23T11:11:14;2.67;;;1.10;;
12758;SDS011;20944;47.048;15.390;2024-03-23T11:13:43;1.88;;;1.08;;
12758;SDS011;20944;47.048;15.390;2024-03-23T11:16:15;0.90;;;0.80;;
12758;SDS011;20944;47.048;15.390;2024-03-23T11:18:43;1.15;;;1.10;;
12758;SDS011;20944;47.048;15.390;2024-03-23T11:21:10;1.05;;;0.98;;
12758;SDS011;20944;47.048;15.390;2024-03-23T11:23:37;2.33;;;1.65;;
12758;SDS011;20944;47.048;15.390;2024-03-23T11:26:07;1.40;;;1.30;;
12758;SDS011;20944;47.048;15.390;2024-03-23T11:28:34;1.30;;;1.20;;
12758;SDS011;20944;47.048;15.390;2024-03-23T11:31:00;1.30;;;1.13;;
12758;SDS011;20944;47.048;15.390;2024-03-23T11:33:29;2.53;;;1.52;;
12758;SDS011;20944;47.048;15.390;2024-03-23T11:35:55;2.00;;;1.52;;
12758;SDS011;20944;47.048;15.390;2024-03-23T11:38:23;1.83;;;1.58;;
12758;SDS011;20944;47.048;15.390;2024-03-23T11:40:49;2.33;;;1.63;;
12758;SDS011;20944;47.048;15.390;2024-03-23T11:43:17;2.05;;;1.85;;
12758;SDS011;20944;47.048;15.390;2024-03-23T11:45:44;2.10;;;1.92;;
12758;SDS011;20944;47.048;15.390;2024-03-23T11:48:12;4.03;;;1.80;;
12758;SDS011;20944;47.048;15.390;2024-03-23T11:50:42;1.70;;;1.58;;
12758;SDS011;20944;47.048;15.390;2024-03-23T11:53:14;2.67;;;1.63;;
12758;SDS011;20944;47.048;15.390;2024-03-23T11:55:45;4.80;;;1.92;;
12758;SDS011;20944;47.048;15.390;2024-03-23T11:58:14;1.70;;;1.60;;
12758;SDS011;20944;47.048;15.390;2024-03-23T12:00:41;3.03;;;1.60;;
12758;SDS011;20944;47.048;15.390;2024-03-23T12:03:09;3.35;;;1.92;;
12758;SDS011;20944;47.048;15.390;2024-03-23T12:05:36;3.20;;;1.92;;
12758;SDS011;20944;47.048;15.390;2024-03-23T12:08:22;3.38;;;2.90;;
12758;SDS011;20944;47.048;15.390;2024-03-23T12:10:50;2.72;;;1.92;;
12758;SDS011;20944;47.048;15.390;2024-03-23T12:13:19;1.88;;;1.63;;
12758;SDS011;20944;47.048;15.390;2024-03-23T12:15:47;4.40;;;2.42;;
12758;SDS011;20944;47.048;15.390;2024-03-23T12:18:16;5.45;;;1.73;;
12758;SDS011;20944;47.048;15.390;2024-03-23T12:20:42;1.85;;;1.70;;
12758;SDS011;20944;47.048;15.390;2024-03-23T12:23:10;1.60;;;1.50;;
12758;SDS011;20944;47.048;15.390;2024-03-23T12:25:39;2.35;;;1.83;;
12758;SDS011;20944;47.048;15.390;2024-03-23T12:28:06;1.35;;;1.25;;
12758;SDS011;20944;47.048;15.390;2024-03-23T12:30:33;2.47;;;1.63;;
12758;SDS011;20944;47.048;15.390;2024-03-23T12:33:01;1.63;;;1.35;;
12758;SDS011;20944;47.048;15.390;2024-03-23T12:35:28;2.05;;;1.50;;
12758;SDS011;20944;47.048;15.390;2024-03-23T12:37:56;1.92;;;1.60;;
12758;SDS011;20944;47.048;15.390;2024-03-23T12:40:22;1.52;;;1.42;;
12758;SDS011;20944;47.048;15.390;2024-03-23T12:42:51;1.88;;;1.40;;
12758;SDS011;20944;47.048;15.390;2024-03-23T12:45:17;1.25;;;1.20;;
12758;SDS011;20944;47.048;15.390;2024-03-23T12:47:44;1.63;;;1.52;;
12758;SDS011;20944;47.048;15.390;2024-03-23T12:50:10;2.38;;;1.45;;
12758;SDS011;20944;47.048;15.390;2024-03-23T12:52:38;3.38;;;1.30;;
12758;SDS011;20944;47.048;15.390;2024-03-23T12:55:04;1.83;;;1.40;;
12758;SDS011;20944;47.048;15.390;2024-03-23T12:57:32;1.58;;;1.50;;
12758;SDS011;20944;47.048;15.390;2024-03-23T13:00:00;1.77;;;1.40;;
12758;SDS011;20944;47.048;15.390;2024-03-23T13:02:28;2.03;;;1.20;;
12758;SDS011;20944;47.048;15.390;2024-03-23T13:04:55;2.20;;;1.50;;
12758;SDS011;20944;47.048;15.390;2024-03-23T13:07:22;2.05;;;1.40;;
12758;SDS011;20944;47.048;15.390;2024-03-23T13:09:50;2.20;;;1.45;;
12758;SDS011;20944;47.048;15.390;2024-03-23T13:12:18;1.50;;;1.40;;
12758;SDS011;20944;47.048;15.390;2024-03-23T13:14:44;1.85;;;1.50;;
12758;SDS011;20944;47.048;15.390;2024-03-23T13:17:13;1.63;;;0.90;;
12758;SDS011;20944;47.048;15.390;2024-03-23T13:19:39;1.25;;;1.02;;
12758;SDS011;20944;47.048;15.390;2024-03-23T13:22:06;1.13;;;1.13;;
12758;SDS011;20944;47.048;15.390;2024-03-23T13:24:33;1.33;;;1.23;;
12758;SDS011;20944;47.048;15.390;2024-03-23T13:27:01;1.45;;;1.25;;
12758;SDS011;20944;47.048;15.390;2024-03-23T13:29:27;1.10;;;1.10;;
12758;SDS011;20944;47.048;15.390;2024-03-23T13:31:54;1.23;;;1.02;;
12758;SDS011;20944;47.048;15.390;2024-03-23T13:34:22;1.83;;;1.35;;
12758;SDS011;20944;47.048;15.390;2024-03-23T13:36:49;2.10;;;1.23;;
12758;SDS011;20944;47.048;15.390;2024-03-23T13:39:15;2.67;;;1.40;;
12758;SDS011;20944;47.048;15.390;2024-03-23T13:41:43;1.25;;;0.90;;
12758;SDS011;20944;47.048;15.390;2024-03-23T13:44:10;1.25;;;1.15;;
12758;SDS011;20944;47.048;15.390;2024-03-23T13:46:38;2.72;;;1.30;;
12758;SDS011;20944;47.048;15.390;2024-03-23T13:49:05;2.03;;;1.73;;
12758;SDS011;20944;47.048;15.390;2024-03-23T13:51:34;3.05;;;1.42;;
12758;SDS011;20944;47.048;15.390;2024-03-23T13:54:00;1.30;;;1.23;;
12758;SDS011;20944;47.048;15.390;2024-03-23T13:56:28;1.48;;;1.00;;
12758;SDS011;20944;47.048;15.390;2024-03-23T13:58:54;1.45;;;1.10;;
12758;SDS011;20944;47.048;15.390;2024-03-23T14:01:22;1.40;;;1.30;;
12758;SDS011;20944;47.048;15.390;2024-03-23T14:03:49;1.73;;;1.63;;
12758;SDS011;20944;47.048;15.390;2024-03-23T14:06:17;1.40;;;1.15;;
12758;SDS011;20944;47.048;15.390;2024-03-23T14:08:44;1.70;;;1.60;;
12758;SDS011;20944;47.048;15.390;2024-03-23T14:11:11;1.67;;;1.58;;
12758;SDS011;20944;47.048;15.390;2024-03-23T14:13:38;1.48;;;1.35;;
12758;SDS011;20944;47.048;15.390;2024-03-23T14:16:06;5.40;;;1.38;;
12758;SDS011;20944;47.048;15.390;2024-03-23T14:18:32;1.50;;;1.40;;
12758;SDS011;20944;47.048;15.390;2024-03-23T14:21:00;1.67;;;1.58;;
12758;SDS011;20944;47.048;15.390;2024-03-23T14:23:29;2.40;;;1.65;;
12758;SDS011;20944;47.048;15.390;2024-03-23T14:26:11;2.25;;;1.45;;
12758;SDS011;20944;47.048;15.390;2024-03-23T14:28:38;1.55;;;1.40;;
12758;SDS011;20944;47.048;15.390;2024-03-23T14:31:05;1.27;;;1.27;;
12758;SDS011;20944;47.048;15.390;2024-03-23T14:33:36;2.58;;;2.00;;
12758;SDS011;20944;47.048;15.390;2024-03-23T14:36:03;2.53;;;1.30;;
12758;SDS011;20944;47.048;15.390;2024-03-23T14:38:30;2.25;;;1.80;;
12758;SDS011;20944;47.048;15.390;2024-03-23T14:40:58;2.53;;;1.45;;
12758;SDS011;20944;47.048;15.390;2024-03-23T14:43:26;1.42;;;1.33;;
12758;SDS011;20944;47.048;15.390;2024-03-23T14:46:06;2.55;;;1.00;;
12758;SDS011;20944;47.048;15.390;2024-03-23T14:48:32;1.58;;;1.48;;
12758;SDS011;20944;47.048;15.390;2024-03-23T14:51:00;5.03;;;1.60;;
12758;SDS011;20944;47.048;15.390;2024-03-23T14:53:27;1.40;;;1.25;;
12758;SDS011;20944;47.048;15.390;2024-03-23T14:55:55;2.30;;;1.42;;
12758;SDS011;20944;47.048;15.390;2024-03-23T14:58:21;1.70;;;1.60;;
12758;SDS011;20944;47.048;15.390;2024-03-23T15:00:51;2.88;;;2.03;;
12758;SDS011;20944;47.048;15.390;2024-03-23T15:03:18;1.52;;;1.33;;
12758;SDS011;20944;47.048;15.390;2024-03-23T15:05:52;1.27;;;1.17;;
12758;SDS011;20944;47.048;15.390;2024-03-23T15:08:18;2.03;;;1.80;;
12758;SDS011;20944;47.048;15.390;2024-03-23T15:10:46;1.45;;;1.33;;
12758;SDS011;20944;47.048;15.390;2024-03-23T15:13:12;1.30;;;1.20;;
12758;SDS011;20944;47.048;15.390;2024-03-23T15:15:40;1.45;;;1.25;;
12758;SDS011;20944;47.048;15.390;2024-03-23T15:18:10;0.75;;;0.65;;
12758;SDS011;20944;47.048;15.390;2024-03-23T15:20:40;0.38;;;0.38;;
12758;SDS011;20944;47.048;15.390;2024-03-23T15:23:06;0.30;;;0.30;;
12758;SDS011;20944;47.048;15.390;2024-03-23T15:25:34;0.30;;;0.30;;
12758;SDS011;20944;47.048;15.390;2024-03-23T15:28:00;1.50;;;0.22;;
12758;SDS011;20944;47.048;15.390;2024-03-23T15:30:28;3.80;;;0.32;;